createdAt,value
2023-03-17T00:01:19.651Z,90.10
2023-03-17T00:03:47.637Z,90.30
2023-03-17T00:06:17.460Z,90.20
2023-03-17T00:08:46.273Z,90.30
2023-03-17T00:11:14.965Z,90.40
2023-03-17T00:13:42.037Z,90.40
2023-03-17T00:16:17.069Z,90.40
2023-03-17T00:18:44.675Z,90.40
2023-03-17T00:21:16.957Z,90.70
2023-03-17T00:23:51.613Z,90.80
2023-03-17T00:26:19.561Z,90.80
2023-03-17T00:28:46.257Z,90.90
2023-03-17T00:31:16.666Z,90.70
2023-03-17T00:33:45.229Z,90.80
2023-03-17T00:36:17.906Z,90.80
2023-03-17T00:38:45.978Z,91.00
2023-03-17T00:41:13.058Z,91.20
2023-03-17T00:43:40.350Z,91.30
2023-03-17T00:46:24.044Z,91.20
2023-03-17T00:48:50.753Z,91.20
2023-03-17T00:51:17.360Z,91.20
2023-03-17T00:53:44.148Z,91.30
2023-03-17T00:56:17.263Z,91.40
2023-03-17T00:58:44.327Z,91.50
2023-03-17T01:01:11.360Z,91.60
2023-03-17T01:03:38.856Z,91.60
2023-03-17T01:06:08.524Z,91.70
2023-03-17T01:08:36.658Z,91.70
2023-03-17T01:11:03.480Z,91.80
2023-03-17T01:13:30.231Z,91.90
2023-03-17T01:15:57.628Z,91.80
2023-03-17T01:18:24.872Z,91.90
2023-03-17T01:20:51.801Z,92.00
2023-03-17T01:23:18.750Z,92.00
2023-03-17T01:25:45.529Z,92.20
2023-03-17T01:28:18.011Z,92.30
2023-03-17T01:30:45.495Z,92.40
2023-03-17T01:33:13.097Z,92.30
2023-03-17T01:35:41.262Z,92.40
2023-03-17T01:38:09.083Z,92.50
2023-03-17T01:40:42.405Z,92.50
2023-03-17T01:43:08.898Z,92.70
2023-03-17T01:46:06.643Z,92.90
2023-03-17T01:48:41.502Z,93.00
2023-03-17T01:51:11.344Z,93.00
2023-03-17T01:53:39.743Z,93.10
2023-03-17T01:56:08.405Z,93.10
2023-03-17T01:58:35.380Z,93.20
2023-03-17T02:01:01.959Z,93.20
2023-03-17T02:03:29.808Z,93.20
2023-03-17T02:06:00.279Z,93.30
2023-03-17T02:08:27.509Z,93.40
2023-03-17T02:10:57.230Z,93.80
2023-03-17T02:13:24.396Z,93.60
2023-03-17T02:15:52.975Z,93.60
2023-03-17T02:18:22.016Z,93.50
2023-03-17T02:20:48.829Z,93.50
2023-03-17T02:23:28.050Z,93.70
2023-03-17T02:25:55.620Z,93.70
2023-03-17T02:28:28.848Z,93.70
2023-03-17T02:30:56.077Z,93.70
2023-03-17T02:33:23.216Z,93.70
2023-03-17T02:35:50.011Z,93.80
2023-03-17T02:38:17.418Z,93.80
2023-03-17T02:40:44.192Z,93.70
2023-03-17T02:43:10.919Z,93.80
2023-03-17T02:45:37.885Z,93.70
2023-03-17T02:48:06.248Z,93.80
2023-03-17T02:50:33.633Z,93.70
2023-03-17T02:53:00.733Z,93.70
2023-03-17T02:55:27.575Z,93.70
2023-03-17T02:57:54.503Z,93.80
2023-03-17T03:00:22.085Z,93.70
2023-03-17T03:02:48.906Z,93.80
2023-03-17T03:05:15.888Z,94.00
2023-03-17T03:07:43.557Z,93.90
2023-03-17T03:10:11.002Z,93.90
2023-03-17T03:12:38.067Z,93.80
2023-03-17T03:15:06.187Z,93.70
2023-03-17T03:17:33.402Z,93.60
2023-03-17T03:20:00.911Z,94.00
2023-03-17T03:22:27.798Z,93.60
2023-03-17T03:24:54.633Z,93.80
2023-03-17T03:27:21.865Z,93.70
2023-03-17T03:29:48.899Z,93.70
2023-03-17T03:32:18.542Z,93.60
2023-03-17T03:34:45.347Z,93.70
2023-03-17T03:37:12.508Z,93.90
2023-03-17T03:39:39.462Z,93.70
2023-03-17T03:42:07.362Z,93.70
2023-03-17T03:44:36.105Z,93.70
2023-03-17T03:47:03.180Z,93.60
2023-03-17T03:49:30.045Z,93.70
2023-03-17T03:51:56.981Z,93.60
2023-03-17T03:54:24.372Z,93.80
2023-03-17T03:56:52.450Z,93.80
2023-03-17T03:59:21.760Z,93.70
2023-03-17T04:01:48.925Z,93.70
2023-03-17T04:04:16.643Z,93.70
2023-03-17T04:06:45.690Z,93.70
2023-03-17T04:09:13.488Z,94.10
2023-03-17T04:11:40.493Z,93.50
2023-03-17T04:14:07.294Z,93.50
2023-03-17T04:16:34.215Z,93.60
2023-03-17T04:19:01.817Z,93.50
2023-03-17T04:21:28.738Z,93.50
2023-03-17T04:23:56.574Z,93.30
2023-03-17T04:26:25.034Z,93.40
2023-03-17T04:28:52.509Z,93.40
2023-03-17T04:31:21.326Z,93.40
2023-03-17T04:33:48.931Z,93.40
2023-03-17T04:36:21.841Z,93.40
2023-03-17T04:38:49.261Z,93.50
2023-03-17T04:41:16.478Z,93.40
2023-03-17T04:43:43.375Z,93.50
2023-03-17T04:46:10.999Z,93.50
2023-03-17T04:48:37.736Z,93.60
2023-03-17T04:51:04.858Z,93.50
2023-03-17T04:53:34.499Z,93.40
2023-03-17T04:56:04.036Z,93.40
2023-03-17T04:58:31.349Z,93.40
2023-03-17T05:01:02.649Z,93.30
2023-03-17T05:03:33.366Z,93.40
2023-03-17T05:06:01.627Z,93.30
2023-03-17T05:08:28.834Z,93.40
2023-03-17T05:10:57.464Z,93.20
2023-03-17T05:13:25.605Z,93.40
2023-03-17T05:15:54.677Z,93.40
2023-03-17T05:18:23.137Z,93.20
2023-03-17T05:20:49.861Z,93.20
2023-03-17T05:23:16.666Z,93.20
2023-03-17T05:25:43.366Z,93.30
2023-03-17T05:28:10.186Z,93.30
2023-03-17T05:30:36.891Z,93.20
2023-03-17T05:33:03.869Z,93.30
2023-03-17T05:35:30.715Z,93.10
2023-03-17T05:37:57.373Z,93.10
2023-03-17T05:40:24.072Z,92.90
2023-03-17T05:42:51.406Z,93.00
2023-03-17T05:45:18.697Z,92.90
2023-03-17T05:47:45.724Z,92.80
2023-03-17T05:50:12.932Z,92.80
2023-03-17T05:52:39.588Z,92.60
2023-03-17T05:55:07.751Z,92.60
2023-03-17T05:57:34.743Z,92.50
2023-03-17T06:00:01.346Z,92.60
2023-03-17T06:02:28.162Z,92.50
2023-03-17T06:04:54.776Z,92.50
2023-03-17T06:07:21.411Z,92.50
2023-03-17T06:09:47.985Z,92.40
2023-03-17T06:12:14.629Z,92.40
2023-03-17T06:14:41.276Z,92.20
2023-03-17T06:17:08.240Z,92.40
2023-03-17T06:19:35.021Z,92.40
2023-03-17T06:22:04.185Z,92.30
2023-03-17T06:24:31.220Z,92.20
2023-03-17T06:26:57.832Z,92.00
2023-03-17T06:29:24.733Z,91.90
2023-03-17T06:31:51.411Z,91.90
2023-03-17T06:34:22.964Z,92.60
2023-03-17T06:36:50.238Z,92.80
2023-03-17T06:39:18.151Z,92.70
2023-03-17T06:41:44.815Z,92.10
2023-03-17T06:44:11.402Z,92.00
2023-03-17T06:46:38.080Z,91.90
2023-03-17T06:49:04.776Z,91.90
2023-03-17T06:51:32.503Z,91.70
2023-03-17T06:53:59.195Z,91.70
2023-03-17T06:56:30.253Z,91.80
2023-03-17T06:58:57.856Z,91.70
2023-03-17T07:01:25.878Z,91.60
2023-03-17T07:03:52.728Z,91.60
2023-03-17T07:06:19.623Z,91.40
2023-03-17T07:08:47.534Z,91.40
2023-03-17T07:11:14.651Z,91.10
2023-03-17T07:13:41.833Z,90.90
2023-03-17T07:16:09.395Z,90.80
2023-03-17T07:18:36.042Z,90.70
2023-03-17T07:21:02.944Z,90.70
2023-03-17T07:23:30.126Z,90.90
2023-03-17T07:25:59.781Z,90.80
2023-03-17T07:28:26.387Z,90.60
2023-03-17T07:30:53.047Z,90.70
2023-03-17T07:33:22.787Z,90.40
2023-03-17T07:35:49.909Z,90.50
2023-03-17T07:38:18.269Z,90.40
2023-03-17T07:40:47.612Z,90.20
2023-03-17T07:43:15.121Z,90.10
2023-03-17T07:45:42.987Z,89.90
2023-03-17T07:48:09.622Z,90.00
2023-03-17T07:50:45.832Z,89.00
2023-03-17T07:53:12.872Z,88.80
2023-03-17T07:55:39.470Z,89.10
2023-03-17T07:58:06.324Z,88.90
2023-03-17T08:00:34.757Z,89.00
2023-03-17T08:03:09.825Z,89.10
2023-03-17T08:05:37.591Z,88.90
2023-03-17T08:08:06.248Z,87.60
2023-03-17T08:10:33.156Z,87.90
2023-03-17T08:13:00.022Z,87.20
2023-03-17T08:15:26.644Z,87.10
2023-03-17T08:17:53.749Z,86.90
2023-03-17T08:20:20.422Z,86.70
2023-03-17T08:22:47.034Z,85.40
2023-03-17T08:25:19.497Z,85.10
2023-03-17T08:27:46.674Z,84.70
2023-03-17T08:30:13.713Z,84.40
2023-03-17T08:32:41.104Z,83.70
2023-03-17T08:35:11.638Z,83.60
2023-03-17T08:37:38.323Z,83.20
2023-03-17T08:40:05.752Z,82.30
2023-03-17T08:42:32.357Z,81.50
2023-03-17T08:44:58.992Z,81.70
2023-03-17T08:47:25.578Z,81.40
2023-03-17T08:49:52.181Z,81.70
2023-03-17T08:52:18.763Z,80.70
2023-03-17T08:54:45.398Z,80.60
2023-03-17T08:57:14.087Z,80.30
2023-03-17T08:59:42.237Z,79.70
2023-03-17T09:02:11.845Z,80.00
2023-03-17T09:04:40.207Z,80.70
2023-03-17T09:07:09.581Z,79.90
2023-03-17T09:09:37.444Z,79.80
2023-03-17T09:12:06.295Z,79.20
2023-03-17T09:14:42.948Z,78.90
2023-03-17T09:17:11.093Z,79.00
2023-03-17T09:19:38.758Z,78.70
2023-03-17T09:22:05.604Z,78.90
2023-03-17T09:24:32.161Z,78.40
2023-03-17T09:26:59.986Z,78.50
2023-03-17T09:29:27.117Z,78.30
2023-03-17T09:31:56.522Z,78.80
2023-03-17T09:34:25.062Z,78.00
2023-03-17T09:36:53.809Z,76.50
2023-03-17T09:39:23.046Z,76.80
2023-03-17T09:42:08.407Z,76.60
2023-03-17T09:45:01.674Z,76.30
2023-03-17T09:47:57.101Z,75.70
2023-03-17T09:50:38.622Z,75.50
2023-03-17T09:53:12.651Z,75.10
2023-03-17T09:55:39.567Z,75.00
2023-03-17T09:58:07.083Z,74.90
2023-03-17T10:00:34.709Z,74.80
2023-03-17T10:03:01.839Z,75.10
2023-03-17T10:05:31.859Z,74.60
2023-03-17T10:08:31.550Z,75.20
2023-03-17T10:11:30.369Z,73.20
2023-03-17T10:14:27.128Z,73.60
2023-03-17T10:17:16.377Z,73.80
2023-03-17T10:19:55.789Z,72.10
2023-03-17T10:22:31.346Z,72.50
2023-03-17T10:25:03.934Z,72.00
2023-03-17T10:27:36.275Z,73.30
2023-03-17T10:30:04.661Z,72.90
2023-03-17T10:32:34.216Z,72.60
2023-03-17T10:35:03.263Z,72.00
2023-03-17T10:37:36.437Z,72.20
2023-03-17T10:40:10.158Z,71.70
2023-03-17T10:42:47.723Z,72.60
2023-03-17T10:45:21.971Z,72.10
2023-03-17T10:47:50.174Z,70.50
2023-03-17T10:50:35.956Z,70.20
2023-03-17T10:53:18.344Z,70.40
2023-03-17T10:55:52.811Z,70.20
2023-03-17T10:58:38.964Z,70.30
2023-03-17T11:01:27.933Z,70.10
2023-03-17T11:03:55.364Z,68.50
2023-03-17T11:06:36.829Z,68.80
2023-03-17T11:09:09.805Z,69.10
2023-03-17T11:11:49.268Z,69.50
2023-03-17T11:14:18.756Z,69.30
2023-03-17T11:17:18.494Z,69.60
2023-03-17T11:20:20.806Z,69.20
2023-03-17T11:23:00.551Z,69.90
2023-03-17T11:25:29.659Z,68.90
2023-03-17T11:28:19.890Z,68.90
2023-03-17T11:31:10.166Z,69.20
2023-03-17T11:33:54.965Z,68.50
2023-03-17T11:36:30.915Z,69.00
2023-03-17T11:39:14.563Z,67.90
2023-03-17T11:41:47.407Z,68.00
2023-03-17T11:44:40.266Z,68.20
2023-03-17T11:47:32.945Z,68.40
2023-03-17T11:50:11.170Z,67.20
2023-03-17T11:53:02.888Z,67.00
2023-03-17T11:55:54.515Z,66.00
2023-03-17T11:58:35.442Z,66.50
2023-03-17T12:01:08.955Z,66.50
2023-03-17T12:03:46.127Z,65.70
2023-03-17T12:06:17.966Z,65.50
2023-03-17T12:08:46.992Z,65.90
2023-03-17T12:11:18.783Z,66.40
2023-03-17T12:13:49.618Z,67.00
2023-03-17T12:16:29.457Z,66.90
2023-03-17T12:19:22.353Z,66.90
2023-03-17T12:22:05.672Z,66.50
2023-03-17T12:24:49.573Z,66.30
2023-03-17T12:27:23.721Z,66.00
2023-03-17T12:29:59.166Z,67.30
2023-03-17T12:32:36.063Z,67.00
2023-03-17T12:35:31.404Z,67.40
2023-03-17T12:38:36.396Z,67.70
2023-03-17T12:41:31.471Z,67.20
2023-03-17T12:44:24.368Z,66.50
2023-03-17T12:47:19.294Z,66.70
2023-03-17T12:50:10.697Z,67.50
2023-03-17T12:52:57.806Z,66.80
2023-03-17T12:55:27.228Z,67.00
2023-03-17T12:58:03.460Z,66.90
2023-03-17T13:00:33.325Z,66.30
2023-03-17T13:03:23.667Z,65.80
2023-03-17T13:05:55.167Z,66.60
2023-03-17T13:08:33.161Z,66.60
2023-03-17T13:11:18.645Z,66.90
2023-03-17T13:13:54.598Z,66.10
2023-03-17T13:16:33.540Z,65.60
2023-03-17T13:19:22.787Z,66.00
2023-03-17T13:22:00.483Z,65.90
2023-03-17T13:24:47.993Z,65.90
2023-03-17T13:27:38.061Z,65.50
2023-03-17T13:30:26.339Z,65.40
2023-03-17T13:33:11.297Z,65.20
2023-03-17T13:35:49.043Z,65.00
2023-03-17T13:39:05.037Z,65.70
2023-03-17T13:41:37.684Z,65.70
2023-03-17T13:44:34.584Z,64.80
2023-03-17T13:47:32.793Z,64.30
2023-03-17T13:50:06.676Z,64.00
2023-03-17T13:52:41.068Z,63.70
2023-03-17T13:55:20.443Z,64.10
2023-03-17T13:58:22.101Z,64.40
2023-03-17T14:00:57.561Z,64.40
2023-03-17T14:03:35.107Z,64.50
2023-03-17T14:06:06.576Z,65.40
2023-03-17T14:08:38.852Z,64.90
2023-03-17T14:11:23.976Z,65.30
2023-03-17T14:14:26.023Z,64.80
2023-03-17T14:17:13.532Z,64.20
2023-03-17T14:19:41.729Z,64.30
2023-03-17T14:22:21.622Z,64.40
2023-03-17T14:24:53.270Z,64.60
2023-03-17T14:27:22.397Z,64.50
2023-03-17T14:29:50.097Z,64.80
2023-03-17T14:32:19.322Z,64.80
2023-03-17T14:34:48.998Z,64.50
2023-03-17T14:37:16.044Z,64.40
2023-03-17T14:39:49.757Z,64.40
2023-03-17T14:42:19.897Z,64.10
2023-03-17T14:44:46.523Z,64.30
2023-03-17T14:47:25.275Z,64.30
2023-03-17T14:49:54.386Z,64.10
2023-03-17T14:52:25.278Z,64.00
2023-03-17T14:54:54.324Z,63.90
2023-03-17T14:57:25.599Z,63.90
2023-03-17T15:00:04.162Z,64.10
2023-03-17T15:02:37.745Z,64.60
2023-03-17T15:05:38.048Z,64.70
2023-03-17T15:08:46.098Z,64.90
2023-03-17T15:11:28.436Z,65.30
2023-03-17T15:14:04.835Z,65.20
2023-03-17T15:16:35.773Z,64.80
2023-03-17T15:19:13.886Z,65.20
2023-03-17T15:21:42.326Z,65.00
2023-03-17T15:24:29.219Z,65.80
2023-03-17T15:27:16.110Z,65.80
2023-03-17T15:29:43.016Z,65.50
2023-03-17T15:32:13.272Z,65.20
2023-03-17T15:34:43.638Z,65.80
2023-03-17T15:37:31.812Z,65.80
2023-03-17T15:40:03.012Z,66.20
2023-03-17T15:42:34.248Z,66.50
2023-03-17T15:45:06.669Z,66.50
2023-03-17T15:47:44.263Z,66.40
2023-03-17T15:50:16.302Z,66.40
2023-03-17T15:52:44.488Z,66.10
2023-03-17T15:55:21.761Z,66.40
2023-03-17T15:57:54.736Z,66.00
2023-03-17T16:00:23.658Z,65.60
2023-03-17T16:02:54.519Z,65.80
2023-03-17T16:05:24.391Z,66.20
2023-03-17T16:07:51.390Z,65.50
2023-03-17T16:10:25.206Z,65.60
2023-03-17T16:12:52.442Z,66.10
2023-03-17T16:15:23.724Z,66.10
2023-03-17T16:17:53.974Z,65.90
2023-03-17T16:20:22.448Z,65.80
2023-03-17T16:22:49.580Z,66.20
2023-03-17T16:25:26.106Z,66.40
2023-03-17T16:27:54.627Z,66.30
2023-03-17T16:30:27.481Z,66.20
2023-03-17T16:32:54.933Z,66.60
2023-03-17T16:35:25.250Z,66.90
2023-03-17T16:37:55.541Z,66.80
2023-03-17T16:40:25.818Z,66.80
2023-03-17T16:42:53.027Z,67.00
2023-03-17T16:45:29.636Z,66.80
2023-03-17T16:47:57.518Z,66.80
2023-03-17T16:50:26.492Z,67.40
2023-03-17T16:52:53.590Z,67.40
2023-03-17T16:55:21.447Z,67.40
2023-03-17T16:57:50.945Z,67.30
2023-03-17T17:00:22.118Z,67.30
2023-03-17T17:02:49.861Z,67.50
2023-03-17T17:05:21.929Z,67.60
2023-03-17T17:07:49.455Z,67.70
2023-03-17T17:10:18.362Z,67.90
2023-03-17T17:12:45.307Z,67.70
2023-03-17T17:15:13.698Z,68.20
2023-03-17T17:17:43.436Z,68.00
2023-03-17T17:20:16.211Z,68.30
2023-03-17T17:22:42.882Z,68.10
2023-03-17T17:25:11.561Z,68.30
2023-03-17T17:27:40.374Z,68.80
2023-03-17T17:30:08.127Z,69.00
2023-03-17T17:32:35.565Z,69.00
2023-03-17T17:35:02.448Z,69.10
2023-03-17T17:37:29.155Z,69.30
2023-03-17T17:39:55.960Z,69.30
2023-03-17T17:42:22.598Z,69.50
2023-03-17T17:44:49.490Z,69.50
2023-03-17T17:47:17.003Z,69.50
2023-03-17T17:49:43.687Z,69.70
2023-03-17T17:52:10.951Z,70.10
2023-03-17T17:54:37.652Z,70.10
2023-03-17T17:57:04.652Z,70.30
2023-03-17T17:59:31.630Z,70.30
2023-03-17T18:01:59.782Z,70.20
2023-03-17T18:04:26.662Z,70.20
2023-03-17T18:06:53.448Z,70.10
2023-03-17T18:09:20.058Z,70.30
2023-03-17T18:11:46.628Z,70.30
2023-03-17T18:14:13.780Z,70.50
2023-03-17T18:16:41.180Z,70.30
2023-03-17T18:19:09.494Z,70.30
2023-03-17T18:21:36.660Z,70.20
2023-03-17T18:24:04.308Z,70.20
2023-03-17T18:26:31.490Z,70.30
2023-03-17T18:28:58.434Z,70.30
2023-03-17T18:31:44.126Z,70.50
2023-03-17T18:34:23.779Z,70.60
2023-03-17T18:36:51.916Z,70.80
2023-03-17T18:39:18.670Z,70.80
2023-03-17T18:41:45.924Z,71.00
2023-03-17T18:44:14.885Z,70.70
2023-03-17T18:46:41.556Z,71.30
2023-03-17T18:49:08.921Z,71.10
2023-03-17T18:51:35.688Z,71.20
2023-03-17T18:54:02.973Z,71.20
2023-03-17T18:56:29.874Z,71.10
2023-03-17T18:58:58.235Z,71.30
2023-03-17T19:01:26.180Z,71.30
2023-03-17T19:03:53.246Z,71.20
2023-03-17T19:06:21.933Z,71.70
2023-03-17T19:08:49.144Z,71.90
2023-03-17T19:11:19.264Z,72.10
2023-03-17T19:13:46.362Z,72.50
2023-03-17T19:16:13.441Z,72.50
2023-03-17T19:18:42.197Z,72.70
2023-03-17T19:21:10.263Z,73.20
2023-03-17T19:23:38.233Z,73.50
2023-03-17T19:26:05.968Z,73.70
2023-03-17T19:28:33.122Z,73.70
2023-03-17T19:31:00.646Z,73.90
2023-03-17T19:33:28.844Z,74.30
2023-03-17T19:35:57.211Z,74.50
2023-03-17T19:38:24.398Z,74.50
2023-03-17T19:40:51.714Z,74.70
2023-03-17T19:43:36.707Z,75.00
2023-03-17T19:46:05.233Z,75.60
2023-03-17T19:48:33.551Z,75.60
2023-03-17T19:51:01.378Z,75.70
2023-03-17T19:53:28.030Z,75.90
2023-03-17T19:55:56.707Z,76.00
2023-03-17T19:58:23.441Z,76.40
2023-03-17T20:00:50.987Z,76.50
2023-03-17T20:03:17.832Z,76.70
2023-03-17T20:05:46.375Z,76.80
2023-03-17T20:08:13.688Z,76.80
2023-03-17T20:10:41.326Z,76.90
2023-03-17T20:13:08.963Z,77.00
2023-03-17T20:15:36.682Z,77.30
2023-03-17T20:18:03.938Z,77.30
2023-03-17T20:20:31.339Z,77.80
2023-03-17T20:22:58.381Z,77.60
2023-03-17T20:25:25.861Z,77.70
2023-03-17T20:27:53.394Z,78.00
2023-03-17T20:30:20.616Z,78.50
2023-03-17T20:32:47.320Z,77.90
2023-03-17T20:35:13.973Z,77.90
2023-03-17T20:37:40.761Z,78.40
2023-03-17T20:40:09.841Z,78.40
2023-03-17T20:42:36.545Z,78.30
2023-03-17T20:45:03.615Z,78.50
2023-03-17T20:47:30.885Z,78.70
2023-03-17T20:49:58.954Z,78.70
2023-03-17T20:52:29.961Z,78.90
2023-03-17T20:54:57.661Z,79.30
2023-03-17T20:57:24.329Z,79.20
2023-03-17T20:59:51.903Z,79.50
2023-03-17T21:02:18.902Z,79.70
2023-03-17T21:04:49.156Z,79.90
2023-03-17T21:07:18.340Z,80.20
2023-03-17T21:09:45.462Z,80.40
2023-03-17T21:12:14.200Z,80.30
2023-03-17T21:14:41.080Z,80.50
2023-03-17T21:17:08.243Z,80.90
2023-03-17T21:19:35.225Z,81.10
2023-03-17T21:22:05.634Z,81.50
2023-03-17T21:24:34.975Z,81.70
2023-03-17T21:27:06.123Z,81.80
2023-03-17T21:29:34.431Z,81.70
2023-03-17T21:32:01.894Z,81.80
2023-03-17T21:34:30.642Z,82.10
2023-03-17T21:36:58.244Z,82.40
2023-03-17T21:39:28.175Z,82.30
2023-03-17T21:41:56.227Z,82.60
2023-03-17T21:44:22.862Z,82.80
2023-03-17T21:46:50.490Z,82.90
2023-03-17T21:49:18.650Z,83.10
2023-03-17T21:51:46.682Z,83.20
2023-03-17T21:54:13.687Z,83.00
2023-03-17T21:56:41.758Z,83.20
2023-03-17T21:59:11.054Z,83.60
2023-03-17T22:01:39.551Z,83.60
2023-03-17T22:04:07.287Z,83.50
2023-03-17T22:06:33.926Z,83.60
2023-03-17T22:09:00.554Z,83.70
2023-03-17T22:11:27.189Z,83.60
2023-03-17T22:13:53.750Z,83.90
2023-03-17T22:16:20.420Z,84.00
2023-03-17T22:18:47.741Z,83.90
2023-03-17T22:21:14.731Z,84.10
2023-03-17T22:23:42.286Z,84.00
2023-03-17T22:26:13.298Z,84.00
2023-03-17T22:28:40.644Z,83.90
2023-03-17T22:31:22.077Z,83.90
2023-03-17T22:33:52.236Z,84.30
2023-03-17T22:36:19.176Z,84.30
2023-03-17T22:38:46.765Z,84.50
2023-03-17T22:41:16.486Z,84.20
2023-03-17T22:43:43.568Z,84.40
2023-03-17T22:46:11.089Z,84.50
2023-03-17T22:48:37.911Z,84.50
2023-03-17T22:51:07.800Z,84.30
2023-03-17T22:53:34.536Z,85.30
2023-03-17T22:56:02.239Z,84.60
2023-03-17T22:58:29.113Z,84.50
2023-03-17T23:00:56.291Z,84.50
2023-03-17T23:03:24.351Z,84.60
2023-03-17T23:05:54.621Z,85.50
2023-03-17T23:08:21.366Z,85.50
2023-03-17T23:10:49.957Z,84.80
2023-03-17T23:13:18.893Z,84.60
2023-03-17T23:15:46.751Z,84.90
2023-03-17T23:18:14.008Z,85.10
2023-03-17T23:20:41.028Z,85.10
2023-03-17T23:23:08.544Z,85.10
2023-03-17T23:25:36.543Z,85.20
2023-03-17T23:28:03.317Z,85.10
2023-03-17T23:30:31.175Z,85.00
2023-03-17T23:32:58.488Z,85.10
2023-03-17T23:35:25.666Z,85.20
2023-03-17T23:37:52.332Z,85.00
2023-03-17T23:40:19.183Z,85.00
2023-03-17T23:42:48.924Z,85.00
2023-03-17T23:45:16.599Z,84.90
2023-03-17T23:47:44.229Z,85.00
2023-03-17T23:50:12.339Z,85.00
2023-03-17T23:52:39.103Z,85.20
2023-03-17T23:55:06.864Z,85.10
2023-03-17T23:57:34.844Z,85.10
